Time;durP1;ratioP1;P1;durP2;ratioP2;P2;SDS_P1;SDS_P2;PMS_P1;PMS_P2;Temp;Humidity;BMP_temperature;BMP_pressure;BME280_temperature;BME280_humidity;BME280_pressure;Samples;Min_cycle;Max_cycle;Signal;HPM_P1;HPM_P2
2023/09/13 00:01:47;;;;;;;;;;;;;;;;;;5023638;28;19925;-83
2023/09/13 00:04:12;;;;;;;;;;;;;;;;;;4999340;28;19922;-83
2023/09/13 00:06:38;;;;;;;;;;;;;;;;;;5006926;28;19921;-83
2023/09/13 00:09:04;;;;;;;;;;;;;;;;;;5015617;28;19922;-83
2023/09/13 00:11:29;;;;;;;;;;;;;;;;;;5016247;28;19976;-83
2023/09/13 00:13:54;;;;;;;;;;;;;;;;;;5037152;28;19928;-83
2023/09/13 00:16:19;;;;;;;;;;;;;;;;;;5007824;28;19922;-83
2023/09/13 00:18:45;;;;;;;;;;;;;;;;;;4983979;28;19921;-83
2023/09/13 00:21:11;;;;;;;;;;;;;;;;;;4999051;28;19918;-83
2023/09/13 00:23:37;;;;;;;;;;;;;;;;;;5032532;28;19921;-83
2023/09/13 00:26:02;;;;;;;;;;;;;;;;;;5015830;28;20362;-83
2023/09/13 00:28:27;;;;;;;;;;;;;;;;;;5011613;28;19957;-82
2023/09/13 00:30:52;;;;;;;;;;;;;;;;;;5001215;28;20222;-83
2023/09/13 00:33:18;;;;;;;;;;;;;;;;;;5002323;28;19922;-83
2023/09/13 00:35:43;;;;;;;;;;;;;;;;;;4999187;28;19934;-82
2023/09/13 00:38:08;;;;;;;;;;;;;;;;;;5007863;28;20472;-83
2023/09/13 00:40:34;;;;;;;;;;;;;;;;;;5017267;28;19926;-83
2023/09/13 00:42:59;;;;;;;;;;;;;;;;;;4981271;28;19922;-84
2023/09/13 00:45:24;;;;;;;;;;;;;;;;;;5000348;28;19949;-83
2023/09/13 00:47:50;;;;;;;;;;;;;;;;;;5034324;28;20499;-82
2023/09/13 00:50:15;;;;;;;;;;;;;;;;;;4997555;28;19921;-83
2023/09/13 00:52:40;;;;;;;;;;;;;;;;;;5014218;28;20113;-83
2023/09/13 00:55:06;;;;;;;;;;;;;;;;;;5015479;28;19918;-83
2023/09/13 00:57:31;;;;;;;;;;;;;;;;;;5015642;28;19928;-83
2023/09/13 00:59:57;;;;;;;;;;;;;;;;;;4998906;28;19922;-83
2023/09/13 01:02:22;;;;;;;;;;;;;;;;;;5016802;28;19927;-83
2023/09/13 01:04:47;;;;;;;;;;;;;;;;;;4998900;28;19918;-83
2023/09/13 01:07:13;;;;;;;;;;;;;;;;;;5036417;28;19928;-84
2023/09/13 01:09:39;;;;;;;;;;;;;;;;;;5015609;28;20490;-83
2023/09/13 01:12:04;;;;;;;;;;;;;;;;;;5018407;28;19921;-83
2023/09/13 01:14:29;;;;;;;;;;;;;;;;;;5022215;28;19921;-83
2023/09/13 01:17:00;;;;;;;;;;;;;;;;;;5020338;28;19931;-83
2023/09/13 01:19:28;;;;;;;;;;;;;;;;;;5021005;28;20689;-83
2023/09/13 01:22:02;;;;;;;;;;;;;;;;;;5037219;28;20373;-84
2023/09/13 01:24:46;;;;;;;;;;;;;;;;;;5039090;28;20443;-84
2023/09/13 01:27:30;;;;;;;;;;;;;;;;;;5037068;28;20292;-83
2023/09/13 01:29:55;;;;;;;;;;;;;;;;;;5019392;28;19928;-83
2023/09/13 01:32:20;;;;;;;;;;;;;;;;;;5053060;28;19974;-83
2023/09/13 01:34:46;;;;;;;;;;;;;;;;;;5038495;28;20380;-83
2023/09/13 01:37:11;;;;;;;;;;;;;;;;;;5053752;28;19924;-83
2023/09/13 01:39:36;;;;;;;;;;;;;;;;;;5042525;28;20307;-83
2023/09/13 01:42:05;;;;;;;;;;;;;;;;;;5033359;28;19975;-84
2023/09/13 01:44:30;;;;;;;;;;;;;;;;;;5030564;28;19921;-83
2023/09/13 01:46:55;;;;;;;;;;;;;;;;;;5025725;28;19943;-80
2023/09/13 01:49:21;;;;;;;;;;;;;;;;;;5052522;28;19924;-82
2023/09/13 01:51:46;;;;;;;;;;;;;;;;;;5036854;28;20035;-81
2023/09/13 01:54:12;;;;;;;;;;;;;;;;;;5050202;28;19923;-83
2023/09/13 01:56:37;;;;;;;;;;;;;;;;;;5027661;28;20423;-84
2023/09/13 01:59:02;;;;;;;;;;;;;;;;;;5014788;28;20849;-84
2023/09/13 02:01:28;;;;;;;;;;;;;;;;;;5031391;28;19933;-82
2023/09/13 02:03:53;;;;;;;;;;;;;;;;;;5008225;28;19921;-83
2023/09/13 02:06:18;;;;;;;;;;;;;;;;;;5009693;28;20016;-84
2023/09/13 02:08:44;;;;;;;;;;;;;;;;;;5053002;28;19921;-83
2023/09/13 02:11:10;;;;;;;;;;;;;;;;;;5051842;28;21575;-83
2023/09/13 02:13:36;;;;;;;;;;;;;;;;;;5035292;28;19942;-83
2023/09/13 02:16:01;;;;;;;;;;;;;;;;;;5035874;28;20379;-83
2023/09/13 02:18:26;;;;;;;;;;;;;;;;;;5042825;28;20019;-83
2023/09/13 02:20:52;;;;;;;;;;;;;;;;;;5007082;28;19993;-83
2023/09/13 02:23:17;;;;;;;;;;;;;;;;;;5051522;28;19932;-84
2023/09/13 02:25:45;;;;;;;;;;;;;;;;;;5000261;28;19928;-84
2023/09/13 02:28:11;;;;;;;;;;;;;;;;;;5014900;28;19994;-83
2023/09/13 02:30:36;;;;;;;;;;;;;;;;;;5051765;28;19921;-83
2023/09/13 02:33:02;;;;;;;;;;;;;;;;;;5020669;28;19927;-83
2023/09/13 02:35:27;;;;;;;;;;;;;;;;;;5019732;28;19936;-83
2023/09/13 02:37:53;;;;;;;;;;;;;;;;;;5034838;28;19921;-83
2023/09/13 02:40:18;;;;;;;;;;;;;;;;;;5037952;28;19921;-83
2023/09/13 02:42:43;;;;;;;;;;;;;;;;;;5020316;28;19920;-82
2023/09/13 02:45:09;;;;;;;;;;;;;;;;;;5020512;28;20288;-83
2023/09/13 02:47:34;;;;;;;;;;;;;;;;;;5011333;28;19928;-83
2023/09/13 02:49:59;;;;;;;;;;;;;;;;;;5016838;28;19996;-83
2023/09/13 02:52:28;;;;;;;;;;;;;;;;;;5051919;28;19917;-82
2023/09/13 02:54:54;;;;;;;;;;;;;;;;;;5035323;28;20393;-83
2023/09/13 02:57:20;;;;;;;;;;;;;;;;;;5050078;28;19974;-83
2023/09/13 02:59:45;;;;;;;;;;;;;;;;;;5053854;28;19946;-83
2023/09/13 03:02:10;;;;;;;;;;;;;;;;;;5041224;28;20388;-83
2023/09/13 03:04:35;;;;;;;;;;;;;;;;;;5051419;28;20423;-83
2023/09/13 03:07:01;;;;;;;;;;;;;;;;;;5018864;28;19916;-82
2023/09/13 03:09:26;;;;;;;;;;;;;;;;;;5052797;28;19921;-83
2023/09/13 03:11:51;;;;;;;;;;;;;;;;;;5041492;28;20260;-83
2023/09/13 03:14:17;;;;;;;;;;;;;;;;;;5043126;28;19943;-83
2023/09/13 03:16:42;;;;;;;;;;;;;;;;;;5050014;28;20365;-83
2023/09/13 03:19:09;;;;;;;;;;;;;;;;;;5025706;28;19933;-83
2023/09/13 03:21:34;;;;;;;;;;;;;;;;;;5018896;28;19921;-84
2023/09/13 03:23:59;;;;;;;;;;;;;;;;;;5000782;28;19921;-83
2023/09/13 03:26:25;;;;;;;;;;;;;;;;;;5000018;28;19921;-84
2023/09/13 03:28:54;;;;;;;;;;;;;;;;;;5020236;28;20011;-83
2023/09/13 03:31:20;;;;;;;;;;;;;;;;;;5035471;28;19928;-83
2023/09/13 03:33:46;;;;;;;;;;;;;;;;;;5023625;28;19927;-84
2023/09/13 03:36:11;;;;;;;;;;;;;;;;;;5016487;28;20901;-82
2023/09/13 03:38:40;;;;;;;;;;;;;;;;;;5030557;28;20332;-83
2023/09/13 03:41:05;;;;;;;;;;;;;;;;;;5039029;28;19955;-83
2023/09/13 03:43:31;;;;;;;;;;;;;;;;;;5023380;28;19960;-82
2023/09/13 03:45:56;;;;;;;;;;;;;;;;;;5054617;28;19921;-82
2023/09/13 03:48:21;;;;;;;;;;;;;;;;;;5037540;28;19978;-82
2023/09/13 03:50:47;;;;;;;;;;;;;;;;;;5055403;28;19921;-82
2023/09/13 03:53:12;;;;;;;;;;;;;;;;;;5054507;28;20047;-82
2023/09/13 03:55:38;;;;;;;;;;;;;;;;;;5055347;28;20380;-82
2023/09/13 03:58:03;;;;;;;;;;;;;;;;;;5056057;28;19920;-80
2023/09/13 04:00:28;;;;;;;;;;;;;;;;;;5044938;28;19929;-83
2023/09/13 04:02:54;;;;;;;;;;;;;;;;;;5057088;28;19921;-82
2023/09/13 04:05:19;;;;;;;;;;;;;;;;;;5055703;28;20442;-82
2023/09/13 04:07:44;;;;;;;;;;;;;;;;;;5054748;28;19921;-82
2023/09/13 04:10:09;;;;;;;;;;;;;;;;;;5054109;28;19933;-82
2023/09/13 04:12:35;;;;;;;;;;;;;;;;;;5055512;28;20296;-81
2023/09/13 04:15:00;;;;;;;;;;;;;;;;;;5044243;28;20257;-81
2023/09/13 04:17:26;;;;;;;;;;;;;;;;;;5023874;28;19956;-81
2023/09/13 04:19:51;;;;;;;;;;;;;;;;;;5046021;28;19932;-85
2023/09/13 04:22:16;;;;;;;;;;;;;;;;;;5055014;28;19970;-85
2023/09/13 04:24:42;;;;;;;;;;;;;;;;;;5040456;28;20305;-85
2023/09/13 04:27:08;;;;;;;;;;;;;;;;;;5054743;28;19925;-85
2023/09/13 04:29:33;;;;;;;;;;;;;;;;;;5036589;28;19921;-85
2023/09/13 04:31:59;;;;;;;;;;;;;;;;;;5006123;28;19960;-84
2023/09/13 04:34:25;;;;;;;;;;;;;;;;;;5032875;28;19925;-85
2023/09/13 04:36:50;;;;;;;;;;;;;;;;;;5007881;28;19984;-84
2023/09/13 04:39:16;;;;;;;;;;;;;;;;;;5002960;28;20348;-85
2023/09/13 04:41:41;;;;;;;;;;;;;;;;;;5020121;28;19957;-85
2023/09/13 04:44:06;;;;;;;;;;;;;;;;;;5004007;28;20422;-85
2023/09/13 04:46:31;;;;;;;;;;;;;;;;;;5004238;28;20340;-85
2023/09/13 04:48:57;;;;;;;;;;;;;;;;;;5013784;28;19952;-85
2023/09/13 04:51:22;;;;;;;;;;;;;;;;;;5007096;28;19921;-85
2023/09/13 04:53:47;;;;;;;;;;;;;;;;;;5024827;28;20003;-84
2023/09/13 04:56:13;;;;;;;;;;;;;;;;;;5021575;28;19940;-84
2023/09/13 04:58:38;;;;;;;;;;;;;;;;;;5004447;28;20651;-85
2023/09/13 05:01:03;;;;;;;;;;;;;;;;;;5039589;28;19920;-81
2023/09/13 05:03:28;;;;;;;;;;;;;;;;;;5038332;28;20052;-82
2023/09/13 05:05:56;;;;;;;;;;;;;;;;;;5022154;28;19927;-82
2023/09/13 05:08:22;;;;;;;;;;;;;;;;;;5029627;28;20484;-82
2023/09/13 05:10:47;;;;;;;;;;;;;;;;;;5001071;28;20016;-82
2023/09/13 05:13:15;;;;;;;;;;;;;;;;;;5002147;28;19918;-83
2023/09/13 05:15:46;;;;;;;;;;;;;;;;;;5019474;28;19925;-82
2023/09/13 05:18:12;;;;;;;;;;;;;;;;;;5008048;28;19925;-83
2023/09/13 05:20:37;;;;;;;;;;;;;;;;;;5001615;28;19928;-82
2023/09/13 05:23:03;;;;;;;;;;;;;;;;;;5002559;28;19956;-82
2023/09/13 05:25:28;;;;;;;;;;;;;;;;;;5032895;28;20286;-82
2023/09/13 05:27:53;;;;;;;;;;;;;;;;;;5001035;28;19956;-82
2023/09/13 05:30:19;;;;;;;;;;;;;;;;;;5002155;28;20330;-83
2023/09/13 05:32:44;;;;;;;;;;;;;;;;;;5014785;28;19924;-83
2023/09/13 05:35:10;;;;;;;;;;;;;;;;;;5014959;28;19921;-83
2023/09/13 05:37:35;;;;;;;;;;;;;;;;;;5002603;28;19921;-82
2023/09/13 05:40:06;;;;;;;;;;;;;;;;;;5016522;28;20319;-83
2023/09/13 05:42:32;;;;;;;;;;;;;;;;;;5043267;28;20356;-81
2023/09/13 05:44:57;;;;;;;;;;;;;;;;;;5017217;28;20380;-82
2023/09/13 05:47:22;;;;;;;;;;;;;;;;;;5009929;28;19964;-82
2023/09/13 05:49:47;;;;;;;;;;;;;;;;;;5017723;28;19921;-82
2023/09/13 05:52:13;;;;;;;;;;;;;;;;;;5029477;28;19921;-82
2023/09/13 05:54:38;;;;;;;;;;;;;;;;;;5048234;28;19921;-82
2023/09/13 05:57:03;;;;;;;;;;;;;;;;;;5007905;28;19972;-82
2023/09/13 05:59:29;;;;;;;;;;;;;;;;;;5025193;28;19927;-82
2023/09/13 06:01:55;;;;;;;;;;;;;;;;;;5020565;28;20377;-83
2023/09/13 06:04:20;;;;;;;;;;;;;;;;;;5019688;28;19929;-83
2023/09/13 06:06:45;;;;;;;;;;;;;;;;;;5049232;28;19920;-88
2023/09/13 06:09:11;;;;;;;;;;;;;;;;;;5035265;28;19925;-88
2023/09/13 06:11:36;;;;;;;;;;;;;;;;;;5035714;28;19968;-88
2023/09/13 06:14:07;;;;;;;;;;;;;;;;;;4999150;28;20040;-87
2023/09/13 06:16:32;;;;;;;;;;;;;;;;;;5013296;28;20475;-87
2023/09/13 06:18:58;;;;;;;;;;;;;;;;;;5016181;28;19925;-88
2023/09/13 06:21:23;;;;;;;;;;;;;;;;;;5054581;28;19921;-87
2023/09/13 06:23:49;;;;;;;;;;;;;;;;;;5021789;28;19940;-88
2023/09/13 06:26:14;;;;;;;;;;;;;;;;;;5032550;28;19944;-88
2023/09/13 06:28:40;;;;;;;;;;;;;;;;;;5019796;28;19917;-87
2023/09/13 06:31:05;;;;;;;;;;;;;;;;;;5033301;28;19921;-87
2023/09/13 06:33:30;;;;;;;;;;;;;;;;;;5014381;28;19922;-88
2023/09/13 06:35:56;;;;;;;;;;;;;;;;;;5000069;28;19926;-88
2023/09/13 06:38:21;;;;;;;;;;;;;;;;;;5017899;28;20013;-86
2023/09/13 06:40:48;;;;;;;;;;;;;;;;;;4999502;28;19965;-88
2023/09/13 06:43:13;;;;;;;;;;;;;;;;;;5048188;28;20643;-87
2023/09/13 06:45:38;;;;;;;;;;;;;;;;;;5020310;28;20000;-88
2023/09/13 06:48:04;;;;;;;;;;;;;;;;;;5052174;28;19969;-87
2023/09/13 06:50:29;;;;;;;;;;;;;;;;;;5004588;28;19921;-86
2023/09/13 06:52:54;;;;;;;;;;;;;;;;;;5042665;28;19917;-87
2023/09/13 06:55:20;;;;;;;;;;;;;;;;;;5052419;28;20032;-86
2023/09/13 06:57:48;;;;;;;;;;;;;;;;;;5052624;28;20415;-87
2023/09/13 07:00:13;;;;;;;;;;;;;;;;;;5051883;28;19920;-87
2023/09/13 07:02:39;;;;;;;;;;;;;;;;;;5003885;28;19943;-88
2023/09/13 07:05:05;;;;;;;;;;;;;;;;;;5000232;28;19925;-87
2023/09/13 07:07:30;;;;;;;;;;;;;;;;;;5011644;28;20372;-87
2023/09/13 07:09:56;;;;;;;;;;;;;;;;;;5034401;28;19936;-88
2023/09/13 07:12:21;;;;;;;;;;;;;;;;;;5010376;28;19948;-85
2023/09/13 07:14:46;;;;;;;;;;;;;;;;;;5040763;28;20360;-87
2023/09/13 07:17:11;;;;;;;;;;;;;;;;;;5018968;28;20016;-88
2023/09/13 07:19:37;;;;;;;;;;;;;;;;;;5048098;28;19930;-87
2023/09/13 07:22:03;;;;;;;;;;;;;;;;;;5019353;28;19917;-87
2023/09/13 07:24:28;;;;;;;;;;;;;;;;;;5041556;28;20388;-86
2023/09/13 07:26:55;;;;;;;;;;;;;;;;;;5039929;28;19975;-86
2023/09/13 07:29:20;;;;;;;;;;;;;;;;;;5008318;28;19964;-88
2023/09/13 07:31:45;;;;;;;;;;;;;;;;;;5038783;28;20401;-87
2023/09/13 07:34:11;;;;;;;;;;;;;;;;;;5052612;28;19932;-90
2023/09/13 07:36:37;;;;;;;;;;;;;;;;;;5019185;28;19932;-86
2023/09/13 07:39:03;;;;;;;;;;;;;;;;;;5017744;28;19921;-87
2023/09/13 07:41:28;;;;;;;;;;;;;;;;;;5023826;28;19978;-87
2023/09/13 07:43:54;;;;;;;;;;;;;;;;;;5023769;28;19921;-86
2023/09/13 07:46:27;;;;;;;;;;;;;;;;;;5011554;28;19921;-87
2023/09/13 07:49:08;;;;;;;;;;;;;;;;;;5045601;28;19921;-86
2023/09/13 07:51:33;;;;;;;;;;;;;;;;;;5029535;28;20416;-86
2023/09/13 07:54:04;;;;;;;;;;;;;;;;;;5021214;28;19996;-87
2023/09/13 07:56:29;;;;;;;;;;;;;;;;;;5018446;28;19924;-87
2023/09/13 07:59:00;;;;;;;;;;;;;;;;;;5030997;28;20330;-87
2023/09/13 08:01:25;;;;;;;;;;;;;;;;;;5025565;28;19924;-80
2023/09/13 08:03:54;;;;;;;;;;;;;;;;;;5057093;28;19921;-84
2023/09/13 08:06:22;;;;;;;;;;;;;;;;;;5037935;28;19921;-85
2023/09/13 08:08:47;;;;;;;;;;;;;;;;;;5023969;28;20538;-85
2023/09/13 08:11:13;;;;;;;;;;;;;;;;;;5053868;28;21360;-85
2023/09/13 08:13:38;;;;;;;;;;;;;;;;;;5053968;28;20348;-86
2023/09/13 08:16:04;;;;;;;;;;;;;;;;;;5044777;28;19925;-87
2023/09/13 08:18:29;;;;;;;;;;;;;;;;;;5055103;28;19924;-86
2023/09/13 08:20:56;;;;;;;;;;;;;;;;;;5054151;28;19967;-85
2023/09/13 08:23:21;;;;;;;;;;;;;;;;;;5056146;28;20617;-84
2023/09/13 08:25:46;;;;;;;;;;;;;;;;;;5054177;28;19920;-85
2023/09/13 08:28:12;;;;;;;;;;;;;;;;;;5054423;28;19940;-86
2023/09/13 08:30:37;;;;;;;;;;;;;;;;;;5030139;28;19928;-85
2023/09/13 08:33:02;;;;;;;;;;;;;;;;;;5007216;28;20362;-86
2023/09/13 08:35:28;;;;;;;;;;;;;;;;;;5039134;28;19918;-87
2023/09/13 08:37:53;;;;;;;;;;;;;;;;;;5008147;28;19948;-86
2023/09/13 08:40:18;;;;;;;;;;;;;;;;;;5020595;28;19921;-87
2023/09/13 08:42:44;;;;;;;;;;;;;;;;;;5050096;28;20377;-87
2023/09/13 08:45:09;;;;;;;;;;;;;;;;;;5028174;28;19982;-86
2023/09/13 08:47:38;;;;;;;;;;;;;;;;;;5011201;28;20023;-83
2023/09/13 08:50:03;;;;;;;;;;;;;;;;;;5046493;28;20566;-85
2023/09/13 08:52:29;;;;;;;;;;;;;;;;;;5014344;28;19921;-86
2023/09/13 08:54:54;;;;;;;;;;;;;;;;;;5009153;28;19921;-84
2023/09/13 08:57:20;;;;;;;;;;;;;;;;;;5013963;28;20376;-84
2023/09/13 08:59:45;;;;;;;;;;;;;;;;;;5054623;28;19994;-85
2023/09/13 09:02:12;;;;;;;;;;;;;;;;;;5022711;28;19925;-85
2023/09/13 09:04:37;;;;;;;;;;;;;;;;;;5017193;28;19920;-85
2023/09/13 09:07:02;;;;;;;;;;;;;;;;;;5006761;28;20394;-85
2023/09/13 09:09:31;;;;;;;;;;;;;;;;;;5032130;28;19925;-85
2023/09/13 09:11:57;;;;;;;;;;;;;;;;;;5052134;28;20365;-84
2023/09/13 09:14:22;;;;;;;;;;;;;;;;;;5026404;28;19922;-84
2023/09/13 09:16:48;;;;;;;;;;;;;;;;;;5053452;28;20898;-86
2023/09/13 09:19:13;;;;;;;;;;;;;;;;;;5050733;28;19927;-86
2023/09/13 09:21:39;;;;;;;;;;;;;;;;;;5046089;28;20013;-81
2023/09/13 09:24:04;;;;;;;;;;;;;;;;;;5021310;28;20353;-81
2023/09/13 09:26:29;;;;;;;;;;;;;;;;;;5052116;28;19928;-81
2023/09/13 09:28:55;;;;;;;;;;;;;;;;;;5024689;28;19928;-81
2023/09/13 09:31:23;;;;;;;;;;;;;;;;;;5014420;28;20012;-81
2023/09/13 09:33:49;;;;;;;;;;;;;;;;;;5031036;28;20334;-86
2023/09/13 09:36:15;;;;;;;;;;;;;;;;;;5048164;28;20481;-84
2023/09/13 09:38:42;;;;;;;;;;;;;;;;;;5001059;28;19957;-85
2023/09/13 09:41:07;;;;;;;;;;;;;;;;;;5022936;28;20388;-85
2023/09/13 09:43:32;;;;;;;;;;;;;;;;;;5020838;28;19921;-85
2023/09/13 09:45:58;;;;;;;;;;;;;;;;;;5051777;28;20004;-86
2023/09/13 09:48:23;;;;;;;;;;;;;;;;;;5021005;28;19921;-85
2023/09/13 09:50:50;;;;;;;;;;;;;;;;;;5012730;28;20363;-85
2023/09/13 09:53:17;;;;;;;;;;;;;;;;;;5031828;28;19920;-84
2023/09/13 09:55:42;;;;;;;;;;;;;;;;;;5001461;28;20028;-85
2023/09/13 09:58:07;;;;;;;;;;;;;;;;;;5018215;28;20403;-86
2023/09/13 10:00:45;;;;;;;;;;;;;;;;;;5007283;28;19917;-86
2023/09/13 10:03:17;;;;;;;;;;;;;;;;;;5020089;28;19921;-85
2023/09/13 10:06:06;;;;;;;;;;;;;;;;;;5043475;28;19990;-84
2023/09/13 10:08:38;;;;;;;;;;;;;;;;;;5018225;28;19925;-85
2023/09/13 10:11:03;;;;;;;;;;;;;;;;;;5004184;28;20412;-81
2023/09/13 10:13:32;;;;;;;;;;;;;;;;;;5001648;28;19971;-81
2023/09/13 10:15:58;;;;;;;;;;;;;;;;;;5041513;28;20304;-81
2023/09/13 10:18:23;;;;;;;;;;;;;;;;;;5016341;28;19921;-81
2023/09/13 10:20:48;;;;;;;;;;;;;;;;;;5033906;28;20016;-81
2023/09/13 10:23:14;;;;;;;;;;;;;;;;;;4999287;28;19971;-81
2023/09/13 10:25:39;;;;;;;;;;;;;;;;;;5017667;28;19940;-81
2023/09/13 10:28:05;;;;;;;;;;;;;;;;;;4997758;28;19929;-82
2023/09/13 10:30:30;;;;;;;;;;;;;;;;;;5024903;28;19921;-81
2023/09/13 10:32:58;;;;;;;;;;;;;;;;;;5018429;28;20023;-81
2023/09/13 10:35:24;;;;;;;;;;;;;;;;;;5018888;28;19921;-82
2023/09/13 10:37:59;;;;;;;;;;;;;;;;;;5014074;28;19920;-82
2023/09/13 10:40:25;;;;;;;;;;;;;;;;;;5049882;28;19994;-81
2023/09/13 10:42:50;;;;;;;;;;;;;;;;;;5054533;28;19925;-81
2023/09/13 10:45:18;;;;;;;;;;;;;;;;;;5050776;28;20003;-85
2023/09/13 10:47:45;;;;;;;;;;;;;;;;;;5041114;28;20841;-87
2023/09/13 10:50:10;;;;;;;;;;;;;;;;;;5018748;28;19921;-85
2023/09/13 10:52:35;;;;;;;;;;;;;;;;;;5053320;28;19943;-86
2023/09/13 10:55:01;;;;;;;;;;;;;;;;;;5035817;28;19932;-85
2023/09/13 10:57:27;;;;;;;;;;;;;;;;;;5035779;28;19925;-85
2023/09/13 10:59:52;;;;;;;;;;;;;;;;;;5052095;28;19927;-85
2023/09/13 11:02:21;;;;;;;;;;;;;;;;;;5024542;28;19921;-85
2023/09/13 11:04:46;;;;;;;;;;;;;;;;;;5035943;28;20450;-85
2023/09/13 11:07:13;;;;;;;;;;;;;;;;;;5050708;28;19925;-85
2023/09/13 11:09:39;;;;;;;;;;;;;;;;;;5016122;28;20352;-86
2023/09/13 11:12:04;;;;;;;;;;;;;;;;;;5020528;28;19968;-85
2023/09/13 11:14:30;;;;;;;;;;;;;;;;;;5055562;28;19928;-85
2023/09/13 11:16:57;;;;;;;;;;;;;;;;;;5058114;28;19925;-87
2023/09/13 11:19:28;;;;;;;;;;;;;;;;;;5011341;28;20339;-85
2023/09/13 11:22:00;;;;;;;;;;;;;;;;;;5015521;28;20350;-87
2023/09/13 11:24:41;;;;;;;;;;;;;;;;;;5029538;28;19920;-85
2023/09/13 11:27:16;;;;;;;;;;;;;;;;;;5029835;28;19921;-85
2023/09/13 11:29:46;;;;;;;;;;;;;;;;;;5022924;28;20019;-86
2023/09/13 11:32:17;;;;;;;;;;;;;;;;;;5041367;28;19925;-84
2023/09/13 11:34:43;;;;;;;;;;;;;;;;;;5003279;28;19960;-85
2023/09/13 11:37:08;;;;;;;;;;;;;;;;;;5023116;28;19953;-86
2023/09/13 11:39:33;;;;;;;;;;;;;;;;;;5028698;28;19921;-82
2023/09/13 11:41:59;;;;;;;;;;;;;;;;;;5012319;28;19925;-85
2023/09/13 11:44:24;;;;;;;;;;;;;;;;;;5024465;28;19944;-85
2023/09/13 11:46:53;;;;;;;;;;;;;;;;;;5039953;28;20460;-86
2023/09/13 11:49:20;;;;;;;;;;;;;;;;;;5025128;28;19930;-85
2023/09/13 11:51:46;;;;;;;;;;;;;;;;;;5050846;28;19932;-85
2023/09/13 11:54:14;;;;;;;;;;;;;;;;;;5057610;28;19925;-84
2023/09/13 11:56:43;;;;;;;;;;;;;;;;;;5024749;28;19971;-84
2023/09/13 11:59:08;;;;;;;;;;;;;;;;;;5040506;28;20003;-85
2023/09/13 12:01:33;;;;;;;;;;;;;;;;;;5037451;28;20388;-86
2023/09/13 12:04:04;;;;;;;;;;;;;;;;;;5029864;28;19921;-84
2023/09/13 12:06:29;;;;;;;;;;;;;;;;;;5022447;28;19964;-84
2023/09/13 12:08:55;;;;;;;;;;;;;;;;;;5002028;28;19979;-85
2023/09/13 12:11:21;;;;;;;;;;;;;;;;;;5019282;28;20035;-83
2023/09/13 12:13:47;;;;;;;;;;;;;;;;;;5035302;28;19921;-85
2023/09/13 12:16:12;;;;;;;;;;;;;;;;;;5018772;28;20008;-86
2023/09/13 12:18:38;;;;;;;;;;;;;;;;;;5018111;28;19990;-85
2023/09/13 12:21:04;;;;;;;;;;;;;;;;;;5018967;28;19971;-84
2023/09/13 12:23:32;;;;;;;;;;;;;;;;;;5037595;28;19944;-85
2023/09/13 12:25:58;;;;;;;;;;;;;;;;;;5011566;28;20016;-85
2023/09/13 12:28:33;;;;;;;;;;;;;;;;;;5038921;28;20011;-84
2023/09/13 12:30:58;;;;;;;;;;;;;;;;;;5003933;28;20399;-84
2023/09/13 12:33:24;;;;;;;;;;;;;;;;;;5013524;28;19917;-86
2023/09/13 12:35:50;;;;;;;;;;;;;;;;;;5035470;28;20015;-85
2023/09/13 12:38:17;;;;;;;;;;;;;;;;;;5044743;28;20910;-85
2023/09/13 12:40:54;;;;;;;;;;;;;;;;;;5055447;28;19927;-84
2023/09/13 12:43:26;;;;;;;;;;;;;;;;;;5056641;28;19921;-85
2023/09/13 12:45:51;;;;;;;;;;;;;;;;;;5053926;28;19917;-85
2023/09/13 12:48:18;;;;;;;;;;;;;;;;;;5037537;28;19928;-85
2023/09/13 12:50:44;;;;;;;;;;;;;;;;;;5036538;28;20007;-85
2023/09/13 12:53:09;;;;;;;;;;;;;;;;;;5055713;28;20498;-83
2023/09/13 12:55:34;;;;;;;;;;;;;;;;;;5055722;28;20420;-86
2023/09/13 12:58:00;;;;;;;;;;;;;;;;;;5054383;28;19917;-87
2023/09/13 13:00:25;;;;;;;;;;;;;;;;;;5036974;28;19925;-88
2023/09/13 13:02:53;;;;;;;;;;;;;;;;;;5054762;28;20339;-87
2023/09/13 13:05:18;;;;;;;;;;;;;;;;;;5042017;28;20304;-87
2023/09/13 13:07:45;;;;;;;;;;;;;;;;;;5051409;28;19917;-88
2023/09/13 13:10:13;;;;;;;;;;;;;;;;;;5055723;28;19985;-88
2023/09/13 13:12:38;;;;;;;;;;;;;;;;;;5054562;28;19921;-87
2023/09/13 13:15:03;;;;;;;;;;;;;;;;;;5044734;28;19927;-87
2023/09/13 13:17:34;;;;;;;;;;;;;;;;;;5035316;28;20281;-88
2023/09/13 13:20:04;;;;;;;;;;;;;;;;;;5045872;28;19921;-88
2023/09/13 13:22:30;;;;;;;;;;;;;;;;;;5039861;28;19920;-87
2023/09/13 13:24:55;;;;;;;;;;;;;;;;;;5054568;28;19925;-87
2023/09/13 13:27:21;;;;;;;;;;;;;;;;;;5005954;28;19921;-87
2023/09/13 13:29:47;;;;;;;;;;;;;;;;;;5012929;28;19924;-87
2023/09/13 13:32:12;;;;;;;;;;;;;;;;;;5034805;28;20027;-85
2023/09/13 13:34:38;;;;;;;;;;;;;;;;;;5028918;28;19978;-85
2023/09/13 13:37:03;;;;;;;;;;;;;;;;;;5024007;28;19924;-85
2023/09/13 13:39:28;;;;;;;;;;;;;;;;;;5047763;28;20011;-85
2023/09/13 13:41:54;;;;;;;;;;;;;;;;;;5053116;28;20043;-86
2023/09/13 13:44:19;;;;;;;;;;;;;;;;;;5054506;28;20310;-85
2023/09/13 13:46:44;;;;;;;;;;;;;;;;;;5034773;28;19994;-86
2023/09/13 13:49:16;;;;;;;;;;;;;;;;;;5019712;28;19921;-85
2023/09/13 13:51:44;;;;;;;;;;;;;;;;;;5019390;28;19993;-86
2023/09/13 13:54:09;;;;;;;;;;;;;;;;;;5037314;28;19921;-86
2023/09/13 13:56:35;;;;;;;;;;;;;;;;;;5047966;28;20388;-85
2023/09/13 13:59:00;;;;;;;;;;;;;;;;;;5043647;28;19921;-85
2023/09/13 14:01:25;;;;;;;;;;;;;;;;;;5008710;28;20859;-84
2023/09/13 14:03:51;;;;;;;;;;;;;;;;;;5044097;28;19939;-83
2023/09/13 14:06:16;;;;;;;;;;;;;;;;;;5041565;28;19939;-83
2023/09/13 14:08:41;;;;;;;;;;;;;;;;;;5043786;28;19983;-84
2023/09/13 14:11:06;;;;;;;;;;;;;;;;;;5050365;28;19933;-85
2023/09/13 14:13:32;;;;;;;;;;;;;;;;;;5042540;28;19924;-85
2023/09/13 14:15:57;;;;;;;;;;;;;;;;;;5050733;28;19925;-85
2023/09/13 14:18:22;;;;;;;;;;;;;;;;;;5052364;28;19944;-84
2023/09/13 14:20:47;;;;;;;;;;;;;;;;;;5053591;28;20281;-85
2023/09/13 14:23:13;;;;;;;;;;;;;;;;;;5053305;28;20333;-85
2023/09/13 14:25:38;;;;;;;;;;;;;;;;;;5017572;28;19920;-85
2023/09/13 14:28:05;;;;;;;;;;;;;;;;;;5050559;28;19963;-84
2023/09/13 14:30:30;;;;;;;;;;;;;;;;;;5052649;28;19927;-84
2023/09/13 14:32:56;;;;;;;;;;;;;;;;;;5035388;28;20364;-85
2023/09/13 14:35:21;;;;;;;;;;;;;;;;;;5035344;28;19923;-85
2023/09/13 14:37:46;;;;;;;;;;;;;;;;;;5052956;28;19924;-85
2023/09/13 14:40:11;;;;;;;;;;;;;;;;;;5037894;28;20289;-85
2023/09/13 14:42:37;;;;;;;;;;;;;;;;;;5021215;28;20368;-82
2023/09/13 14:45:04;;;;;;;;;;;;;;;;;;5052380;28;19998;-83
2023/09/13 14:47:29;;;;;;;;;;;;;;;;;;5021007;28;19920;-83
2023/09/13 14:49:54;;;;;;;;;;;;;;;;;;5052998;28;19928;-84
2023/09/13 14:52:20;;;;;;;;;;;;;;;;;;5036507;28;20035;-85
2023/09/13 14:54:45;;;;;;;;;;;;;;;;;;5005810;28;19928;-87
2023/09/13 14:57:10;;;;;;;;;;;;;;;;;;5032631;28;20268;-86
2023/09/13 14:59:36;;;;;;;;;;;;;;;;;;4999019;28;19917;-83
2023/09/13 15:02:01;;;;;;;;;;;;;;;;;;5023943;28;19920;-83
2023/09/13 15:04:27;;;;;;;;;;;;;;;;;;4998860;28;19978;-82
2023/09/13 15:06:52;;;;;;;;;;;;;;;;;;5029944;28;19921;-83
2023/09/13 15:09:18;;;;;;;;;;;;;;;;;;5037140;28;19927;-82
2023/09/13 15:11:43;;;;;;;;;;;;;;;;;;5009927;28;19944;-82
2023/09/13 15:14:10;;;;;;;;;;;;;;;;;;5040858;28;19960;-82
2023/09/13 15:16:35;;;;;;;;;;;;;;;;;;5035177;28;19924;-82
2023/09/13 15:19:02;;;;;;;;;;;;;;;;;;5045721;28;19983;-82
2023/09/13 15:21:27;;;;;;;;;;;;;;;;;;5034597;28;19947;-82
2023/09/13 15:23:53;;;;;;;;;;;;;;;;;;5051909;28;19917;-83
2023/09/13 15:26:18;;;;;;;;;;;;;;;;;;5052055;28;20035;-83
2023/09/13 15:28:43;;;;;;;;;;;;;;;;;;5045723;28;20427;-82
2023/09/13 15:31:08;;;;;;;;;;;;;;;;;;5022464;28;19968;-83
2023/09/13 15:33:34;;;;;;;;;;;;;;;;;;5039543;28;19925;-83
2023/09/13 15:35:59;;;;;;;;;;;;;;;;;;5055422;28;19961;-82
2023/09/13 15:38:24;;;;;;;;;;;;;;;;;;5026050;28;19920;-82
2023/09/13 15:40:50;;;;;;;;;;;;;;;;;;5024658;28;20360;-82
2023/09/13 15:43:16;;;;;;;;;;;;;;;;;;5039289;28;20037;-82
2023/09/13 15:45:41;;;;;;;;;;;;;;;;;;5053925;28;20361;-82
2023/09/13 15:48:06;;;;;;;;;;;;;;;;;;5040657;28;19979;-82
2023/09/13 15:50:32;;;;;;;;;;;;;;;;;;5049849;28;19923;-81
2023/09/13 15:52:57;;;;;;;;;;;;;;;;;;5037492;28;20339;-81
2023/09/13 15:55:23;;;;;;;;;;;;;;;;;;5036592;28;20686;-83
2023/09/13 15:57:49;;;;;;;;;;;;;;;;;;5041465;28;19924;-83
2023/09/13 16:00:14;;;;;;;;;;;;;;;;;;5025195;28;19923;-82
2023/09/13 16:02:39;;;;;;;;;;;;;;;;;;5039599;28;20007;-82
2023/09/13 16:05:05;;;;;;;;;;;;;;;;;;5049081;28;19997;-80
2023/09/13 16:07:34;;;;;;;;;;;;;;;;;;5021926;28;19924;-79
2023/09/13 16:10:03;;;;;;;;;;;;;;;;;;5014007;28;20452;-79
2023/09/13 16:12:29;;;;;;;;;;;;;;;;;;5030732;28;20395;-82
2023/09/13 16:14:54;;;;;;;;;;;;;;;;;;5028103;28;19921;-82
2023/09/13 16:17:19;;;;;;;;;;;;;;;;;;5015039;28;19925;-82
2023/09/13 16:19:44;;;;;;;;;;;;;;;;;;5005954;28;20335;-82
2023/09/13 16:22:10;;;;;;;;;;;;;;;;;;5002398;28;19917;-82
2023/09/13 16:24:35;;;;;;;;;;;;;;;;;;5033163;28;19971;-82
2023/09/13 16:27:00;;;;;;;;;;;;;;;;;;5054265;28;19921;-82
2023/09/13 16:29:26;;;;;;;;;;;;;;;;;;5044024;28;20447;-82
2023/09/13 16:31:51;;;;;;;;;;;;;;;;;;5043179;28;19925;-82
2023/09/13 16:34:16;;;;;;;;;;;;;;;;;;5054691;28;19928;-82
2023/09/13 16:36:41;;;;;;;;;;;;;;;;;;5020686;28;19968;-82
2023/09/13 16:39:07;;;;;;;;;;;;;;;;;;5055356;28;19920;-83